sensor_id;sensor_type;location;lat;lon;timestamp;P1;durP1;ratioP1;P2;durP2;ratioP2
31724;SDS011;18306;40.960;14.836;2023-04-25T00:00:07;7.97;;;1.65;;
31724;SDS011;18306;40.960;14.836;2023-04-25T00:02:39;7.60;;;1.25;;
31724;SDS011;18306;40.960;14.836;2023-04-25T00:05:06;4.55;;;2.10;;
31724;SDS011;18306;40.960;14.836;2023-04-25T00:07:34;5.25;;;1.10;;
31724;SDS011;18306;40.960;14.836;2023-04-25T00:10:01;6.55;;;1.50;;
31724;SDS011;18306;40.960;14.836;2023-04-25T00:12:29;9.40;;;1.70;;
31724;SDS011;18306;40.960;14.836;2023-04-25T00:14:56;9.10;;;1.90;;
31724;SDS011;18306;40.960;14.836;2023-04-25T00:17:24;6.85;;;1.92;;
31724;SDS011;18306;40.960;14.836;2023-04-25T00:19:51;2.20;;;1.52;;
31724;SDS011;18306;40.960;14.836;2023-04-25T00:22:18;8.77;;;2.35;;
31724;SDS011;18306;40.960;14.836;2023-04-25T00:24:47;8.95;;;2.58;;
31724;SDS011;18306;40.960;14.836;2023-04-25T00:27:14;1.42;;;1.00;;
31724;SDS011;18306;40.960;14.836;2023-04-25T00:29:41;7.95;;;1.42;;
31724;SDS011;18306;40.960;14.836;2023-04-25T00:32:09;4.20;;;1.77;;
31724;SDS011;18306;40.960;14.836;2023-04-25T00:34:36;12.98;;;2.15;;
31724;SDS011;18306;40.960;14.836;2023-04-25T00:37:04;6.47;;;2.13;;
31724;SDS011;18306;40.960;14.836;2023-04-25T00:39:32;5.95;;;1.63;;
31724;SDS011;18306;40.960;14.836;2023-04-25T00:41:59;5.47;;;1.35;;
31724;SDS011;18306;40.960;14.836;2023-04-25T00:44:29;9.38;;;1.80;;
31724;SDS011;18306;40.960;14.836;2023-04-25T00:46:59;8.48;;;1.55;;
31724;SDS011;18306;40.960;14.836;2023-04-25T00:49:28;6.00;;;1.35;;
31724;SDS011;18306;40.960;14.836;2023-04-25T00:51:56;2.25;;;1.17;;
31724;SDS011;18306;40.960;14.836;2023-04-25T00:54:23;6.35;;;1.23;;
31724;SDS011;18306;40.960;14.836;2023-04-25T00:56:52;8.07;;;1.85;;
31724;SDS011;18306;40.960;14.836;2023-04-25T00:59:19;3.75;;;1.40;;
31724;SDS011;18306;40.960;14.836;2023-04-25T01:01:47;8.00;;;1.50;;
31724;SDS011;18306;40.960;14.836;2023-04-25T01:04:17;13.27;;;1.88;;
31724;SDS011;18306;40.960;14.836;2023-04-25T01:06:47;10.30;;;1.67;;
31724;SDS011;18306;40.960;14.836;2023-04-25T01:09:14;8.13;;;1.90;;
31724;SDS011;18306;40.960;14.836;2023-04-25T01:11:42;6.32;;;1.30;;
31724;SDS011;18306;40.960;14.836;2023-04-25T01:14:09;4.53;;;1.60;;
31724;SDS011;18306;40.960;14.836;2023-04-25T01:16:36;2.72;;;1.15;;
31724;SDS011;18306;40.960;14.836;2023-04-25T01:19:10;11.23;;;1.75;;
31724;SDS011;18306;40.960;14.836;2023-04-25T01:24:05;6.63;;;1.65;;
31724;SDS011;18306;40.960;14.836;2023-04-25T01:26:33;3.58;;;1.48;;
31724;SDS011;18306;40.960;14.836;2023-04-25T01:29:01;2.17;;;1.27;;
31724;SDS011;18306;40.960;14.836;2023-04-25T01:31:30;6.70;;;1.83;;
31724;SDS011;18306;40.960;14.836;2023-04-25T01:33:59;3.67;;;1.08;;
31724;SDS011;18306;40.960;14.836;2023-04-25T01:36:28;2.40;;;0.82;;
31724;SDS011;18306;40.960;14.836;2023-04-25T01:38:56;4.90;;;1.40;;
31724;SDS011;18306;40.960;14.836;2023-04-25T01:41:24;1.63;;;1.10;;
31724;SDS011;18306;40.960;14.836;2023-04-25T01:43:51;9.05;;;1.52;;
31724;SDS011;18306;40.960;14.836;2023-04-25T01:46:21;7.50;;;1.88;;
31724;SDS011;18306;40.960;14.836;2023-04-25T01:48:49;12.88;;;1.95;;
31724;SDS011;18306;40.960;14.836;2023-04-25T01:51:16;4.38;;;1.50;;
31724;SDS011;18306;40.960;14.836;2023-04-25T01:53:44;1.55;;;0.93;;
31724;SDS011;18306;40.960;14.836;2023-04-25T01:56:12;8.20;;;1.65;;
31724;SDS011;18306;40.960;14.836;2023-04-25T01:58:39;11.10;;;1.40;;
31724;SDS011;18306;40.960;14.836;2023-04-25T02:01:21;3.72;;;1.50;;
31724;SDS011;18306;40.960;14.836;2023-04-25T02:04:05;8.00;;;0.93;;
31724;SDS011;18306;40.960;14.836;2023-04-25T02:06:35;13.48;;;1.58;;
31724;SDS011;18306;40.960;14.836;2023-04-25T02:09:03;7.97;;;1.48;;
31724;SDS011;18306;40.960;14.836;2023-04-25T02:11:44;6.20;;;1.88;;
31724;SDS011;18306;40.960;14.836;2023-04-25T02:14:40;6.82;;;1.73;;
31724;SDS011;18306;40.960;14.836;2023-04-25T02:17:25;4.53;;;1.45;;
31724;SDS011;18306;40.960;14.836;2023-04-25T02:19:53;7.13;;;1.65;;
31724;SDS011;18306;40.960;14.836;2023-04-25T02:22:20;10.60;;;2.08;;
31724;SDS011;18306;40.960;14.836;2023-04-25T02:24:47;7.13;;;1.50;;
31724;SDS011;18306;40.960;14.836;2023-04-25T02:27:15;10.80;;;2.20;;
31724;SDS011;18306;40.960;14.836;2023-04-25T02:29:42;6.20;;;1.67;;
31724;SDS011;18306;40.960;14.836;2023-04-25T02:32:11;6.43;;;1.92;;
31724;SDS011;18306;40.960;14.836;2023-04-25T02:34:38;3.95;;;1.60;;
31724;SDS011;18306;40.960;14.836;2023-04-25T02:37:05;6.60;;;2.03;;
31724;SDS011;18306;40.960;14.836;2023-04-25T02:39:32;8.07;;;1.90;;
31724;SDS011;18306;40.960;14.836;2023-04-25T02:42:00;10.02;;;1.50;;
31724;SDS011;18306;40.960;14.836;2023-04-25T02:44:29;10.55;;;1.75;;
31724;SDS011;18306;40.960;14.836;2023-04-25T02:46:56;9.85;;;1.63;;
31724;SDS011;18306;40.960;14.836;2023-04-25T02:49:24;2.15;;;1.40;;
31724;SDS011;18306;40.960;14.836;2023-04-25T02:51:52;9.10;;;2.22;;
31724;SDS011;18306;40.960;14.836;2023-04-25T02:54:19;3.60;;;1.75;;
31724;SDS011;18306;40.960;14.836;2023-04-25T02:56:48;10.55;;;2.08;;
31724;SDS011;18306;40.960;14.836;2023-04-25T02:59:20;3.25;;;1.95;;
31724;SDS011;18306;40.960;14.836;2023-04-25T03:01:49;14.52;;;2.60;;
31724;SDS011;18306;40.960;14.836;2023-04-25T03:04:19;6.15;;;1.98;;
31724;SDS011;18306;40.960;14.836;2023-04-25T03:06:47;12.18;;;2.17;;
31724;SDS011;18306;40.960;14.836;2023-04-25T03:09:14;6.85;;;1.35;;
31724;SDS011;18306;40.960;14.836;2023-04-25T03:11:43;3.33;;;1.27;;
31724;SDS011;18306;40.960;14.836;2023-04-25T03:14:12;7.22;;;1.75;;
31724;SDS011;18306;40.960;14.836;2023-04-25T03:16:39;6.13;;;1.55;;
31724;SDS011;18306;40.960;14.836;2023-04-25T03:19:06;5.28;;;2.35;;
31724;SDS011;18306;40.960;14.836;2023-04-25T03:21:34;7.53;;;1.52;;
31724;SDS011;18306;40.960;14.836;2023-04-25T03:24:02;6.10;;;1.58;;
31724;SDS011;18306;40.960;14.836;2023-04-25T03:26:31;3.00;;;1.90;;
31724;SDS011;18306;40.960;14.836;2023-04-25T03:28:59;4.35;;;1.15;;
31724;SDS011;18306;40.960;14.836;2023-04-25T03:31:27;10.60;;;1.90;;
31724;SDS011;18306;40.960;14.836;2023-04-25T03:33:54;1.58;;;1.20;;
31724;SDS011;18306;40.960;14.836;2023-04-25T03:36:23;5.82;;;1.42;;
31724;SDS011;18306;40.960;14.836;2023-04-25T03:38:50;4.45;;;1.70;;
31724;SDS011;18306;40.960;14.836;2023-04-25T03:41:21;9.38;;;2.00;;
31724;SDS011;18306;40.960;14.836;2023-04-25T03:43:52;7.13;;;1.73;;
31724;SDS011;18306;40.960;14.836;2023-04-25T03:46:20;14.82;;;2.15;;
31724;SDS011;18306;40.960;14.836;2023-04-25T03:48:48;4.68;;;2.03;;
31724;SDS011;18306;40.960;14.836;2023-04-25T03:51:21;5.35;;;1.83;;
31724;SDS011;18306;40.960;14.836;2023-04-25T03:53:49;4.05;;;1.70;;
31724;SDS011;18306;40.960;14.836;2023-04-25T03:56:19;8.93;;;2.08;;
31724;SDS011;18306;40.960;14.836;2023-04-25T03:58:52;8.18;;;1.98;;
31724;SDS011;18306;40.960;14.836;2023-04-25T04:01:21;4.57;;;1.92;;
31724;SDS011;18306;40.960;14.836;2023-04-25T04:03:49;6.45;;;1.80;;
31724;SDS011;18306;40.960;14.836;2023-04-25T04:06:17;8.48;;;1.80;;
31724;SDS011;18306;40.960;14.836;2023-04-25T04:11:17;5.32;;;1.70;;
31724;SDS011;18306;40.960;14.836;2023-04-25T04:13:44;13.50;;;1.50;;
31724;SDS011;18306;40.960;14.836;2023-04-25T04:16:11;7.93;;;2.65;;
31724;SDS011;18306;40.960;14.836;2023-04-25T04:18:39;5.53;;;1.38;;
31724;SDS011;18306;40.960;14.836;2023-04-25T04:21:06;14.80;;;1.88;;
31724;SDS011;18306;40.960;14.836;2023-04-25T04:23:36;6.90;;;1.73;;
31724;SDS011;18306;40.960;14.836;2023-04-25T04:26:03;3.45;;;1.38;;
31724;SDS011;18306;40.960;14.836;2023-04-25T04:28:46;2.63;;;1.65;;
31724;SDS011;18306;40.960;14.836;2023-04-25T04:31:33;8.88;;;1.63;;
31724;SDS011;18306;40.960;14.836;2023-04-25T04:34:00;6.65;;;1.67;;
31724;SDS011;18306;40.960;14.836;2023-04-25T04:36:29;8.43;;;1.65;;
31724;SDS011;18306;40.960;14.836;2023-04-25T04:38:57;3.92;;;1.25;;
31724;SDS011;18306;40.960;14.836;2023-04-25T04:41:44;6.47;;;1.85;;
31724;SDS011;18306;40.960;14.836;2023-04-25T04:44:31;3.95;;;1.48;;
31724;SDS011;18306;40.960;14.836;2023-04-25T04:47:12;11.95;;;1.30;;
31724;SDS011;18306;40.960;14.836;2023-04-25T04:50:12;5.95;;;0.98;;
31724;SDS011;18306;40.960;14.836;2023-04-25T04:53:07;7.80;;;1.83;;
31724;SDS011;18306;40.960;14.836;2023-04-25T04:55:43;4.25;;;1.73;;
31724;SDS011;18306;40.960;14.836;2023-04-25T04:58:30;7.10;;;1.85;;
31724;SDS011;18306;40.960;14.836;2023-04-25T05:01:30;9.32;;;2.35;;
31724;SDS011;18306;40.960;14.836;2023-04-25T05:04:04;5.10;;;1.95;;
31724;SDS011;18306;40.960;14.836;2023-04-25T05:06:50;7.82;;;2.03;;
31724;SDS011;18306;40.960;14.836;2023-04-25T05:09:38;7.30;;;1.20;;
31724;SDS011;18306;40.960;14.836;2023-04-25T05:12:11;4.30;;;1.85;;
31724;SDS011;18306;40.960;14.836;2023-04-25T05:14:50;7.32;;;2.22;;
31724;SDS011;18306;40.960;14.836;2023-04-25T05:17:30;13.50;;;1.95;;
31724;SDS011;18306;40.960;14.836;2023-04-25T05:20:05;9.57;;;2.17;;
31724;SDS011;18306;40.960;14.836;2023-04-25T05:22:54;8.93;;;1.77;;
31724;SDS011;18306;40.960;14.836;2023-04-25T05:25:34;3.88;;;1.35;;
31724;SDS011;18306;40.960;14.836;2023-04-25T05:28:20;5.68;;;1.67;;
31724;SDS011;18306;40.960;14.836;2023-04-25T05:30:58;8.85;;;2.22;;
31724;SDS011;18306;40.960;14.836;2023-04-25T05:33:32;7.07;;;2.05;;
31724;SDS011;18306;40.960;14.836;2023-04-25T05:36:10;10.88;;;2.30;;
31724;SDS011;18306;40.960;14.836;2023-04-25T05:38:58;8.23;;;1.88;;
31724;SDS011;18306;40.960;14.836;2023-04-25T05:41:59;11.35;;;2.85;;
31724;SDS011;18306;40.960;14.836;2023-04-25T05:44:50;8.73;;;2.13;;
31724;SDS011;18306;40.960;14.836;2023-04-25T05:47:36;4.75;;;1.52;;
31724;SDS011;18306;40.960;14.836;2023-04-25T05:50:08;6.15;;;1.58;;
31724;SDS011;18306;40.960;14.836;2023-04-25T05:53:14;2.67;;;1.45;;
31724;SDS011;18306;40.960;14.836;2023-04-25T05:55:43;6.53;;;2.33;;
31724;SDS011;18306;40.960;14.836;2023-04-25T05:58:20;4.70;;;1.90;;
31724;SDS011;18306;40.960;14.836;2023-04-25T06:00:47;4.55;;;1.65;;
31724;SDS011;18306;40.960;14.836;2023-04-25T06:03:14;1.67;;;1.13;;
31724;SDS011;18306;40.960;14.836;2023-04-25T06:05:42;9.55;;;2.25;;
31724;SDS011;18306;40.960;14.836;2023-04-25T06:08:09;7.95;;;1.50;;
31724;SDS011;18306;40.960;14.836;2023-04-25T06:10:37;6.43;;;1.50;;
31724;SDS011;18306;40.960;14.836;2023-04-25T06:13:05;5.13;;;1.67;;
31724;SDS011;18306;40.960;14.836;2023-04-25T06:15:34;14.35;;;2.35;;
31724;SDS011;18306;40.960;14.836;2023-04-25T06:18:02;10.80;;;2.28;;
31724;SDS011;18306;40.960;14.836;2023-04-25T06:20:29;11.32;;;1.90;;
31724;SDS011;18306;40.960;14.836;2023-04-25T06:22:59;11.55;;;1.98;;
31724;SDS011;18306;40.960;14.836;2023-04-25T06:25:40;9.63;;;1.73;;
31724;SDS011;18306;40.960;14.836;2023-04-25T06:28:08;3.25;;;0.90;;
31724;SDS011;18306;40.960;14.836;2023-04-25T06:30:35;8.23;;;1.83;;
31724;SDS011;18306;40.960;14.836;2023-04-25T06:33:08;9.35;;;2.45;;
31724;SDS011;18306;40.960;14.836;2023-04-25T06:35:37;15.07;;;1.45;;
31724;SDS011;18306;40.960;14.836;2023-04-25T06:38:05;7.55;;;1.50;;
31724;SDS011;18306;40.960;14.836;2023-04-25T06:40:32;7.70;;;1.67;;
31724;SDS011;18306;40.960;14.836;2023-04-25T06:43:00;1.80;;;0.90;;
31724;SDS011;18306;40.960;14.836;2023-04-25T06:45:46;4.30;;;1.92;;
31724;SDS011;18306;40.960;14.836;2023-04-25T06:48:13;3.78;;;1.30;;
31724;SDS011;18306;40.960;14.836;2023-04-25T06:50:42;6.32;;;1.45;;
31724;SDS011;18306;40.960;14.836;2023-04-25T06:53:09;2.28;;;1.38;;
31724;SDS011;18306;40.960;14.836;2023-04-25T06:55:49;9.15;;;1.40;;
31724;SDS011;18306;40.960;14.836;2023-04-25T06:58:37;7.78;;;1.42;;
31724;SDS011;18306;40.960;14.836;2023-04-25T07:03:38;8.50;;;1.70;;
31724;SDS011;18306;40.960;14.836;2023-04-25T07:06:11;9.30;;;1.60;;
31724;SDS011;18306;40.960;14.836;2023-04-25T07:08:42;5.20;;;1.63;;
31724;SDS011;18306;40.960;14.836;2023-04-25T07:11:09;6.88;;;1.73;;
31724;SDS011;18306;40.960;14.836;2023-04-25T07:13:37;2.47;;;1.27;;
31724;SDS011;18306;40.960;14.836;2023-04-25T07:16:04;5.35;;;1.45;;
31724;SDS011;18306;40.960;14.836;2023-04-25T07:18:36;9.38;;;1.33;;
31724;SDS011;18306;40.960;14.836;2023-04-25T07:21:06;4.80;;;1.80;;
31724;SDS011;18306;40.960;14.836;2023-04-25T07:23:37;3.58;;;1.65;;
31724;SDS011;18306;40.960;14.836;2023-04-25T07:26:13;4.35;;;1.02;;
31724;SDS011;18306;40.960;14.836;2023-04-25T07:29:04;5.07;;;1.85;;
31724;SDS011;18306;40.960;14.836;2023-04-25T07:31:31;8.55;;;1.20;;
31724;SDS011;18306;40.960;14.836;2023-04-25T07:34:07;4.35;;;1.38;;
31724;SDS011;18306;40.960;14.836;2023-04-25T07:36:37;4.43;;;1.48;;
31724;SDS011;18306;40.960;14.836;2023-04-25T07:39:05;5.85;;;1.77;;
31724;SDS011;18306;40.960;14.836;2023-04-25T07:41:42;4.50;;;1.15;;
31724;SDS011;18306;40.960;14.836;2023-04-25T07:44:14;9.85;;;1.05;;
31724;SDS011;18306;40.960;14.836;2023-04-25T07:46:41;8.40;;;1.80;;
31724;SDS011;18306;40.960;14.836;2023-04-25T07:49:12;7.28;;;1.77;;
31724;SDS011;18306;40.960;14.836;2023-04-25T07:51:42;3.43;;;0.87;;
31724;SDS011;18306;40.960;14.836;2023-04-25T07:54:13;7.85;;;1.40;;
31724;SDS011;18306;40.960;14.836;2023-04-25T07:56:47;1.25;;;0.85;;
31724;SDS011;18306;40.960;14.836;2023-04-25T07:59:14;4.45;;;1.05;;
31724;SDS011;18306;40.960;14.836;2023-04-25T08:01:42;4.45;;;1.52;;
31724;SDS011;18306;40.960;14.836;2023-04-25T08:04:11;2.97;;;1.40;;
31724;SDS011;18306;40.960;14.836;2023-04-25T08:06:53;8.18;;;1.65;;
31724;SDS011;18306;40.960;14.836;2023-04-25T08:09:27;6.25;;;1.70;;
31724;SDS011;18306;40.960;14.836;2023-04-25T08:12:03;4.10;;;1.48;;
31724;SDS011;18306;40.960;14.836;2023-04-25T08:14:32;5.07;;;1.83;;
31724;SDS011;18306;40.960;14.836;2023-04-25T08:17:05;6.93;;;1.60;;
31724;SDS011;18306;40.960;14.836;2023-04-25T08:19:38;11.93;;;1.98;;
31724;SDS011;18306;40.960;14.836;2023-04-25T08:22:07;1.48;;;0.80;;
31724;SDS011;18306;40.960;14.836;2023-04-25T08:24:48;5.97;;;1.52;;
31724;SDS011;18306;40.960;14.836;2023-04-25T08:27:18;3.97;;;1.87;;
31724;SDS011;18306;40.960;14.836;2023-04-25T08:29:54;2.90;;;1.20;;
31724;SDS011;18306;40.960;14.836;2023-04-25T08:32:24;2.95;;;1.52;;
31724;SDS011;18306;40.960;14.836;2023-04-25T08:35:10;15.07;;;4.28;;
31724;SDS011;18306;40.960;14.836;2023-04-25T08:37:37;5.65;;;2.50;;
31724;SDS011;18306;40.960;14.836;2023-04-25T08:40:12;12.75;;;3.47;;
31724;SDS011;18306;40.960;14.836;2023-04-25T08:43:01;9.02;;;3.92;;
31724;SDS011;18306;40.960;14.836;2023-04-25T08:45:35;13.02;;;3.15;;
31724;SDS011;18306;40.960;14.836;2023-04-25T08:48:05;9.40;;;3.70;;
31724;SDS011;18306;40.960;14.836;2023-04-25T08:50:39;8.05;;;2.08;;
31724;SDS011;18306;40.960;14.836;2023-04-25T08:53:35;8.13;;;2.17;;
31724;SDS011;18306;40.960;14.836;2023-04-25T08:56:09;4.85;;;2.58;;
31724;SDS011;18306;40.960;14.836;2023-04-25T08:58:48;4.05;;;1.70;;
31724;SDS011;18306;40.960;14.836;2023-04-25T09:01:19;4.63;;;1.85;;
31724;SDS011;18306;40.960;14.836;2023-04-25T09:07:05;13.82;;;5.07;;
31724;SDS011;18306;40.960;14.836;2023-04-25T09:09:42;15.13;;;4.68;;
31724;SDS011;18306;40.960;14.836;2023-04-25T09:12:42;17.83;;;5.80;;
31724;SDS011;18306;40.960;14.836;2023-04-25T09:16:26;16.10;;;6.32;;
31724;SDS011;18306;40.960;14.836;2023-04-25T09:19:23;19.13;;;6.68;;
31724;SDS011;18306;40.960;14.836;2023-04-25T09:21:55;4.72;;;2.38;;
31724;SDS011;18306;40.960;14.836;2023-04-25T09:24:38;9.30;;;3.15;;
31724;SDS011;18306;40.960;14.836;2023-04-25T09:27:11;12.02;;;2.60;;
31724;SDS011;18306;40.960;14.836;2023-04-25T09:29:47;10.18;;;2.25;;
31724;SDS011;18306;40.960;14.836;2023-04-25T09:32:23;8.85;;;3.95;;
31724;SDS011;18306;40.960;14.836;2023-04-25T09:35:04;17.08;;;2.28;;
31724;SDS011;18306;40.960;14.836;2023-04-25T09:37:35;4.50;;;2.05;;
31724;SDS011;18306;40.960;14.836;2023-04-25T09:40:20;10.30;;;2.85;;
31724;SDS011;18306;40.960;14.836;2023-04-25T09:43:10;10.52;;;2.40;;
31724;SDS011;18306;40.960;14.836;2023-04-25T09:45:48;7.15;;;2.30;;
31724;SDS011;18306;40.960;14.836;2023-04-25T09:48:21;11.20;;;4.20;;
31724;SDS011;18306;40.960;14.836;2023-04-25T09:51:05;8.20;;;3.42;;
31724;SDS011;18306;40.960;14.836;2023-04-25T09:53:37;7.30;;;2.65;;
31724;SDS011;18306;40.960;14.836;2023-04-25T09:56:29;5.75;;;1.90;;
31724;SDS011;18306;40.960;14.836;2023-04-25T09:59:07;6.03;;;1.58;;
31724;SDS011;18306;40.960;14.836;2023-04-25T10:01:55;4.20;;;1.73;;
31724;SDS011;18306;40.960;14.836;2023-04-25T10:04:31;7.90;;;4.00;;
31724;SDS011;18306;40.960;14.836;2023-04-25T10:07:05;8.93;;;2.88;;
31724;SDS011;18306;40.960;14.836;2023-04-25T10:09:33;4.65;;;2.83;;
31724;SDS011;18306;40.960;14.836;2023-04-25T10:12:23;2.85;;;1.67;;
31724;SDS011;18306;40.960;14.836;2023-04-25T10:14:54;12.88;;;2.47;;
31724;SDS011;18306;40.960;14.836;2023-04-25T10:17:33;4.32;;;1.92;;
31724;SDS011;18306;40.960;14.836;2023-04-25T10:20:05;4.30;;;1.85;;
31724;SDS011;18306;40.960;14.836;2023-04-25T10:22:51;10.77;;;2.63;;
31724;SDS011;18306;40.960;14.836;2023-04-25T10:25:30;8.32;;;2.88;;
31724;SDS011;18306;40.960;14.836;2023-04-25T10:27:58;8.95;;;2.70;;
31724;SDS011;18306;40.960;14.836;2023-04-25T10:30:28;7.03;;;2.75;;
31724;SDS011;18306;40.960;14.836;2023-04-25T10:32:55;5.07;;;2.75;;
31724;SDS011;18306;40.960;14.836;2023-04-25T10:35:35;7.18;;;2.47;;
31724;SDS011;18306;40.960;14.836;2023-04-25T10:38:09;10.35;;;1.50;;
31724;SDS011;18306;40.960;14.836;2023-04-25T10:40:37;6.97;;;3.63;;
31724;SDS011;18306;40.960;14.836;2023-04-25T10:46:01;10.20;;;2.15;;
31724;SDS011;18306;40.960;14.836;2023-04-25T10:48:30;5.32;;;2.13;;
31724;SDS011;18306;40.960;14.836;2023-04-25T10:51:10;2.88;;;1.83;;
31724;SDS011;18306;40.960;14.836;2023-04-25T10:53:38;6.50;;;1.55;;
31724;SDS011;18306;40.960;14.836;2023-04-25T10:56:09;13.95;;;2.35;;
31724;SDS011;18306;40.960;14.836;2023-04-25T10:59:30;5.97;;;1.52;;
31724;SDS011;18306;40.960;14.836;2023-04-25T11:02:11;6.38;;;1.98;;
31724;SDS011;18306;40.960;14.836;2023-04-25T11:04:41;6.03;;;1.88;;
31724;SDS011;18306;40.960;14.836;2023-04-25T11:09:50;5.53;;;1.30;;
31724;SDS011;18306;40.960;14.836;2023-04-25T11:12:17;5.97;;;1.65;;
31724;SDS011;18306;40.960;14.836;2023-04-25T11:15:03;6.70;;;2.80;;
31724;SDS011;18306;40.960;14.836;2023-04-25T11:17:34;14.18;;;2.53;;
31724;SDS011;18306;40.960;14.836;2023-04-25T11:20:13;8.10;;;2.17;;
31724;SDS011;18306;40.960;14.836;2023-04-25T11:22:52;5.28;;;2.60;;
31724;SDS011;18306;40.960;14.836;2023-04-25T11:25:29;8.25;;;2.80;;
31724;SDS011;18306;40.960;14.836;2023-04-25T11:28:05;4.77;;;2.40;;
31724;SDS011;18306;40.960;14.836;2023-04-25T11:30:50;6.30;;;2.33;;
31724;SDS011;18306;40.960;14.836;2023-04-25T11:33:24;5.03;;;1.87;;
31724;SDS011;18306;40.960;14.836;2023-04-25T11:35:54;5.40;;;1.67;;
31724;SDS011;18306;40.960;14.836;2023-04-25T11:38:27;6.47;;;1.83;;
31724;SDS011;18306;40.960;14.836;2023-04-25T11:41:03;3.28;;;1.60;;
31724;SDS011;18306;40.960;14.836;2023-04-25T11:43:30;5.07;;;2.00;;
31724;SDS011;18306;40.960;14.836;2023-04-25T11:45:57;4.57;;;1.38;;
31724;SDS011;18306;40.960;14.836;2023-04-25T11:48:24;7.60;;;1.83;;
31724;SDS011;18306;40.960;14.836;2023-04-25T11:50:55;7.00;;;1.58;;
31724;SDS011;18306;40.960;14.836;2023-04-25T11:53:22;2.83;;;1.75;;
31724;SDS011;18306;40.960;14.836;2023-04-25T11:55:50;10.73;;;1.85;;
31724;SDS011;18306;40.960;14.836;2023-04-25T11:58:18;7.28;;;2.28;;
31724;SDS011;18306;40.960;14.836;2023-04-25T12:00:45;3.70;;;1.70;;
31724;SDS011;18306;40.960;14.836;2023-04-25T12:03:13;4.47;;;1.77;;
31724;SDS011;18306;40.960;14.836;2023-04-25T12:05:49;6.57;;;1.55;;
31724;SDS011;18306;40.960;14.836;2023-04-25T12:08:17;3.47;;;1.58;;
31724;SDS011;18306;40.960;14.836;2023-04-25T12:10:45;9.95;;;1.45;;
31724;SDS011;18306;40.960;14.836;2023-04-25T12:13:22;10.17;;;1.44;;
31724;SDS011;18306;40.960;14.836;2023-04-25T12:15:51;4.40;;;1.20;;
31724;SDS011;18306;40.960;14.836;2023-04-25T12:18:20;6.38;;;1.80;;
31724;SDS011;18306;40.960;14.836;2023-04-25T12:20:50;3.03;;;1.40;;
31724;SDS011;18306;40.960;14.836;2023-04-25T12:23:26;3.15;;;1.70;;
31724;SDS011;18306;40.960;14.836;2023-04-25T12:25:54;4.32;;;1.17;;
31724;SDS011;18306;40.960;14.836;2023-04-25T12:28:25;4.35;;;1.38;;
31724;SDS011;18306;40.960;14.836;2023-04-25T12:31:07;12.15;;;1.77;;
31724;SDS011;18306;40.960;14.836;2023-04-25T12:33:37;3.67;;;1.30;;
31724;SDS011;18306;40.960;14.836;2023-04-25T12:36:07;2.63;;;1.27;;
31724;SDS011;18306;40.960;14.836;2023-04-25T12:38:41;6.13;;;1.65;;
31724;SDS011;18306;40.960;14.836;2023-04-25T12:41:08;5.00;;;1.42;;
31724;SDS011;18306;40.960;14.836;2023-04-25T12:43:36;4.28;;;1.20;;
31724;SDS011;18306;40.960;14.836;2023-04-25T12:46:03;9.15;;;2.22;;
31724;SDS011;18306;40.960;14.836;2023-04-25T12:48:33;7.68;;;1.52;;
31724;SDS011;18306;40.960;14.836;2023-04-25T12:51:00;14.25;;;2.17;;
31724;SDS011;18306;40.960;14.836;2023-04-25T12:53:28;3.38;;;1.58;;
31724;SDS011;18306;40.960;14.836;2023-04-25T12:55:55;4.85;;;1.52;;
31724;SDS011;18306;40.960;14.836;2023-04-25T12:58:24;7.68;;;1.58;;
31724;SDS011;18306;40.960;14.836;2023-04-25T13:01:05;5.05;;;1.75;;
31724;SDS011;18306;40.960;14.836;2023-04-25T13:03:47;2.30;;;1.33;;
31724;SDS011;18306;40.960;14.836;2023-04-25T13:06:15;7.93;;;2.53;;
31724;SDS011;18306;40.960;14.836;2023-04-25T13:08:46;20.00;;;7.80;;
31724;SDS011;18306;40.960;14.836;2023-04-25T13:11:16;56.55;;;20.23;;
31724;SDS011;18306;40.960;14.836;2023-04-25T13:13:44;34.65;;;11.82;;
31724;SDS011;18306;40.960;14.836;2023-04-25T13:16:35;11.88;;;3.65;;
31724;SDS011;18306;40.960;14.836;2023-04-25T13:19:10;12.75;;;4.13;;
31724;SDS011;18306;40.960;14.836;2023-04-25T13:21:46;6.28;;;2.88;;
31724;SDS011;18306;40.960;14.836;2023-04-25T13:24:13;3.22;;;1.58;;
31724;SDS011;18306;40.960;14.836;2023-04-25T13:26:44;7.07;;;2.60;;
31724;SDS011;18306;40.960;14.836;2023-04-25T13:29:15;11.02;;;2.58;;
31724;SDS011;18306;40.960;14.836;2023-04-25T13:31:42;9.13;;;2.70;;
31724;SDS011;18306;40.960;14.836;2023-04-25T13:34:09;6.75;;;2.40;;
31724;SDS011;18306;40.960;14.836;2023-04-25T13:36:40;4.57;;;2.28;;
31724;SDS011;18306;40.960;14.836;2023-04-25T13:39:08;6.80;;;1.95;;
31724;SDS011;18306;40.960;14.836;2023-04-25T13:41:35;3.78;;;1.73;;
31724;SDS011;18306;40.960;14.836;2023-04-25T13:44:06;2.67;;;1.67;;
31724;SDS011;18306;40.960;14.836;2023-04-25T13:46:40;2.75;;;1.42;;
31724;SDS011;18306;40.960;14.836;2023-04-25T13:49:27;6.10;;;2.17;;
31724;SDS011;18306;40.960;14.836;2023-04-25T13:52:21;6.77;;;2.20;;
31724;SDS011;18306;40.960;14.836;2023-04-25T13:54:50;6.85;;;2.55;;
31724;SDS011;18306;40.960;14.836;2023-04-25T13:57:21;7.03;;;1.80;;
31724;SDS011;18306;40.960;14.836;2023-04-25T13:59:50;8.40;;;2.25;;
31724;SDS011;18306;40.960;14.836;2023-04-25T14:02:17;8.35;;;2.03;;
31724;SDS011;18306;40.960;14.836;2023-04-25T14:04:44;15.00;;;5.10;;
31724;SDS011;18306;40.960;14.836;2023-04-25T14:07:12;3.60;;;1.65;;
31724;SDS011;18306;40.960;14.836;2023-04-25T14:09:42;4.78;;;2.35;;
31724;SDS011;18306;40.960;14.836;2023-04-25T14:12:09;8.90;;;2.47;;
31724;SDS011;18306;40.960;14.836;2023-04-25T14:14:37;9.65;;;2.95;;
31724;SDS011;18306;40.960;14.836;2023-04-25T14:17:04;4.28;;;2.10;;
31724;SDS011;18306;40.960;14.836;2023-04-25T14:19:33;6.05;;;2.00;;
31724;SDS011;18306;40.960;14.836;2023-04-25T14:22:00;10.65;;;2.33;;
31724;SDS011;18306;40.960;14.836;2023-04-25T14:24:28;9.68;;;2.15;;
31724;SDS011;18306;40.960;14.836;2023-04-25T14:26:59;5.20;;;1.90;;
31724;SDS011;18306;40.960;14.836;2023-04-25T14:29:27;8.55;;;2.33;;
31724;SDS011;18306;40.960;14.836;2023-04-25T14:31:56;8.80;;;2.80;;
31724;SDS011;18306;40.960;14.836;2023-04-25T14:34:25;14.45;;;2.85;;
31724;SDS011;18306;40.960;14.836;2023-04-25T14:36:57;9.77;;;2.72;;
31724;SDS011;18306;40.960;14.836;2023-04-25T14:39:29;5.65;;;2.00;;
31724;SDS011;18306;40.960;14.836;2023-04-25T14:41:59;4.10;;;2.38;;
31724;SDS011;18306;40.960;14.836;2023-04-25T14:44:26;16.05;;;2.65;;
31724;SDS011;18306;40.960;14.836;2023-04-25T14:46:53;11.05;;;2.33;;
31724;SDS011;18306;40.960;14.836;2023-04-25T14:49:22;3.15;;;1.42;;
31724;SDS011;18306;40.960;14.836;2023-04-25T14:51:50;4.30;;;1.88;;
31724;SDS011;18306;40.960;14.836;2023-04-25T14:54:19;5.63;;;2.30;;
31724;SDS011;18306;40.960;14.836;2023-04-25T14:56:47;3.92;;;1.35;;
31724;SDS011;18306;40.960;14.836;2023-04-25T14:59:15;5.63;;;2.10;;
31724;SDS011;18306;40.960;14.836;2023-04-25T15:01:42;5.05;;;1.98;;
31724;SDS011;18306;40.960;14.836;2023-04-25T15:04:10;4.82;;;2.08;;
31724;SDS011;18306;40.960;14.836;2023-04-25T15:06:38;3.63;;;2.22;;
31724;SDS011;18306;40.960;14.836;2023-04-25T15:09:06;9.10;;;2.78;;
31724;SDS011;18306;40.960;14.836;2023-04-25T15:11:33;8.85;;;1.83;;
31724;SDS011;18306;40.960;14.836;2023-04-25T15:14:00;6.55;;;2.60;;
31724;SDS011;18306;40.960;14.836;2023-04-25T15:16:27;8.23;;;2.40;;
31724;SDS011;18306;40.960;14.836;2023-04-25T15:18:54;8.75;;;1.73;;